sensor_id;sensor_type;location;lat;lon;timestamp;P1;durP1;ratioP1;P2;durP2;ratioP2
40849;SDS011;26571;41.610;25.380;2023-05-17T00:00:15;14.68;;;13.20;;
40849;SDS011;26571;41.610;25.380;2023-05-17T00:02:41;18.40;;;14.75;;
40849;SDS011;26571;41.610;25.380;2023-05-17T00:05:07;15.57;;;14.05;;
40849;SDS011;26571;41.610;25.380;2023-05-17T00:07:33;14.98;;;13.38;;
40849;SDS011;26571;41.610;25.380;2023-05-17T00:09:58;15.00;;;13.50;;
40849;SDS011;26571;41.610;25.380;2023-05-17T00:12:23;15.60;;;14.10;;
40849;SDS011;26571;41.610;25.380;2023-05-17T00:14:49;15.02;;;13.63;;
40849;SDS011;26571;41.610;25.380;2023-05-17T00:17:14;15.23;;;13.55;;
40849;SDS011;26571;41.610;25.380;2023-05-17T00:19:40;15.45;;;13.38;;
40849;SDS011;26571;41.610;25.380;2023-05-17T00:22:06;15.30;;;13.73;;
40849;SDS011;26571;41.610;25.380;2023-05-17T00:24:31;21.90;;;14.85;;
40849;SDS011;26571;41.610;25.380;2023-05-17T00:26:57;14.93;;;13.30;;
40849;SDS011;26571;41.610;25.380;2023-05-17T00:29:22;15.07;;;13.63;;
40849;SDS011;26571;41.610;25.380;2023-05-17T00:31:47;15.57;;;13.88;;
40849;SDS011;26571;41.610;25.380;2023-05-17T00:34:13;14.75;;;12.93;;
40849;SDS011;26571;41.610;25.380;2023-05-17T00:36:38;13.95;;;12.68;;
40849;SDS011;26571;41.610;25.380;2023-05-17T00:39:04;14.25;;;12.82;;
40849;SDS011;26571;41.610;25.380;2023-05-17T00:41:29;20.52;;;13.18;;
40849;SDS011;26571;41.610;25.380;2023-05-17T00:43:54;12.50;;;11.25;;
40849;SDS011;26571;41.610;25.380;2023-05-17T00:46:20;12.68;;;11.43;;
40849;SDS011;26571;41.610;25.380;2023-05-17T00:48:45;14.75;;;11.68;;
40849;SDS011;26571;41.610;25.380;2023-05-17T00:51:10;17.23;;;10.52;;
40849;SDS011;26571;41.610;25.380;2023-05-17T00:53:38;19.48;;;12.20;;
40849;SDS011;26571;41.610;25.380;2023-05-17T00:56:04;13.65;;;10.70;;
40849;SDS011;26571;41.610;25.380;2023-05-17T00:58:30;17.08;;;10.90;;
40849;SDS011;26571;41.610;25.380;2023-05-17T01:00:56;18.60;;;10.93;;
40849;SDS011;26571;41.610;25.380;2023-05-17T01:05:48;13.25;;;10.35;;
40849;SDS011;26571;41.610;25.380;2023-05-17T01:08:15;15.88;;;10.88;;
40849;SDS011;26571;41.610;25.380;2023-05-17T01:11:00;18.42;;;11.85;;
40849;SDS011;26571;41.610;25.380;2023-05-17T01:13:33;12.02;;;10.13;;
40849;SDS011;26571;41.610;25.380;2023-05-17T01:16:09;14.63;;;10.77;;
40849;SDS011;26571;41.610;25.380;2023-05-17T01:18:57;12.90;;;9.85;;
40849;SDS011;26571;41.610;25.380;2023-05-17T01:26:51;12.25;;;10.15;;
40849;SDS011;26571;41.610;25.380;2023-05-17T01:29:18;11.20;;;10.07;;
40849;SDS011;26571;41.610;25.380;2023-05-17T01:31:48;14.85;;;10.38;;
40849;SDS011;26571;41.610;25.380;2023-05-17T01:34:15;11.32;;;10.18;;
40849;SDS011;26571;41.610;25.380;2023-05-17T01:36:49;13.25;;;10.23;;
40849;SDS011;26571;41.610;25.380;2023-05-17T01:39:14;12.23;;;11.02;;
40849;SDS011;26571;41.610;25.380;2023-05-17T01:41:39;13.35;;;9.85;;
40849;SDS011;26571;41.610;25.380;2023-05-17T01:44:17;11.27;;;10.13;;
40849;SDS011;26571;41.610;25.380;2023-05-17T01:46:47;12.48;;;9.60;;
40849;SDS011;26571;41.610;25.380;2023-05-17T01:49:20;22.15;;;11.68;;
40849;SDS011;26571;41.610;25.380;2023-05-17T01:54:18;15.70;;;11.70;;
40849;SDS011;26571;41.610;25.380;2023-05-17T01:56:47;11.50;;;10.32;;
40849;SDS011;26571;41.610;25.380;2023-05-17T01:59:19;15.52;;;10.77;;
40849;SDS011;26571;41.610;25.380;2023-05-17T02:01:49;16.77;;;12.13;;
40849;SDS011;26571;41.610;25.380;2023-05-17T02:04:18;11.75;;;10.55;;
40849;SDS011;26571;41.610;25.380;2023-05-17T02:06:44;15.05;;;11.55;;
40849;SDS011;26571;41.610;25.380;2023-05-17T02:09:09;14.52;;;10.60;;
40849;SDS011;26571;41.610;25.380;2023-05-17T02:11:35;12.63;;;10.32;;
40849;SDS011;26571;41.610;25.380;2023-05-17T02:14:01;11.95;;;10.88;;
40849;SDS011;26571;41.610;25.380;2023-05-17T02:16:26;13.05;;;11.73;;
40849;SDS011;26571;41.610;25.380;2023-05-17T02:18:51;16.92;;;11.00;;
40849;SDS011;26571;41.610;25.380;2023-05-17T02:21:17;13.23;;;10.70;;
40849;SDS011;26571;41.610;25.380;2023-05-17T02:23:42;13.02;;;11.25;;
40849;SDS011;26571;41.610;25.380;2023-05-17T02:26:08;12.25;;;10.23;;
40849;SDS011;26571;41.610;25.380;2023-05-17T02:28:33;12.65;;;11.35;;
40849;SDS011;26571;41.610;25.380;2023-05-17T02:30:59;15.55;;;10.38;;
40849;SDS011;26571;41.610;25.380;2023-05-17T02:33:24;11.80;;;10.68;;
40849;SDS011;26571;41.610;25.380;2023-05-17T02:35:50;10.88;;;9.98;;
40849;SDS011;26571;41.610;25.380;2023-05-17T02:38:15;14.85;;;9.77;;
40849;SDS011;26571;41.610;25.380;2023-05-17T02:40:41;14.75;;;12.30;;
40849;SDS011;26571;41.610;25.380;2023-05-17T02:43:06;12.43;;;11.18;;
40849;SDS011;26571;41.610;25.380;2023-05-17T02:45:31;12.55;;;11.25;;
40849;SDS011;26571;41.610;25.380;2023-05-17T02:47:57;11.73;;;10.50;;
40849;SDS011;26571;41.610;25.380;2023-05-17T02:50:22;15.43;;;10.20;;
40849;SDS011;26571;41.610;25.380;2023-05-17T02:52:48;21.17;;;12.15;;
40849;SDS011;26571;41.610;25.380;2023-05-17T02:55:13;13.00;;;10.90;;
40849;SDS011;26571;41.610;25.380;2023-05-17T02:57:39;12.65;;;10.25;;
40849;SDS011;26571;41.610;25.380;2023-05-17T03:00:04;12.88;;;11.52;;
40849;SDS011;26571;41.610;25.380;2023-05-17T03:02:31;17.20;;;11.52;;
40849;SDS011;26571;41.610;25.380;2023-05-17T03:04:56;15.20;;;11.02;;
40849;SDS011;26571;41.610;25.380;2023-05-17T03:07:21;14.75;;;11.05;;
40849;SDS011;26571;41.610;25.380;2023-05-17T03:09:47;12.63;;;11.50;;
40849;SDS011;26571;41.610;25.380;2023-05-17T03:12:12;12.68;;;11.52;;
40849;SDS011;26571;41.610;25.380;2023-05-17T03:14:37;12.32;;;9.90;;
40849;SDS011;26571;41.610;25.380;2023-05-17T03:17:03;15.82;;;11.02;;
40849;SDS011;26571;41.610;25.380;2023-05-17T03:19:28;14.48;;;11.40;;
40849;SDS011;26571;41.610;25.380;2023-05-17T03:21:54;13.68;;;10.88;;
40849;SDS011;26571;41.610;25.380;2023-05-17T03:24:19;13.18;;;10.80;;
40849;SDS011;26571;41.610;25.380;2023-05-17T03:26:45;17.52;;;12.85;;
40849;SDS011;26571;41.610;25.380;2023-05-17T03:29:10;14.32;;;10.27;;
40849;SDS011;26571;41.610;25.380;2023-05-17T03:31:35;17.58;;;12.07;;
40849;SDS011;26571;41.610;25.380;2023-05-17T03:34:01;11.10;;;10.02;;
40849;SDS011;26571;41.610;25.380;2023-05-17T03:36:26;11.48;;;10.07;;
40849;SDS011;26571;41.610;25.380;2023-05-17T03:38:52;24.00;;;13.65;;
40849;SDS011;26571;41.610;25.380;2023-05-17T03:41:17;23.08;;;11.35;;
40849;SDS011;26571;41.610;25.380;2023-05-17T03:43:43;13.75;;;10.73;;
40849;SDS011;26571;41.610;25.380;2023-05-17T03:46:08;14.52;;;10.43;;
40849;SDS011;26571;41.610;25.380;2023-05-17T03:48:34;17.05;;;11.77;;
40849;SDS011;26571;41.610;25.380;2023-05-17T03:50:59;12.15;;;10.95;;
40849;SDS011;26571;41.610;25.380;2023-05-17T03:53:25;13.93;;;10.35;;
40849;SDS011;26571;41.610;25.380;2023-05-17T03:55:50;12.57;;;11.15;;
40849;SDS011;26571;41.610;25.380;2023-05-17T03:58:15;16.95;;;12.05;;
40849;SDS011;26571;41.610;25.380;2023-05-17T04:00:41;16.45;;;13.52;;
40849;SDS011;26571;41.610;25.380;2023-05-17T04:03:06;12.40;;;11.15;;
40849;SDS011;26571;41.610;25.380;2023-05-17T04:05:32;11.30;;;10.30;;
40849;SDS011;26571;41.610;25.380;2023-05-17T04:07:57;13.70;;;12.15;;
40849;SDS011;26571;41.610;25.380;2023-05-17T04:10:23;13.90;;;12.52;;
40849;SDS011;26571;41.610;25.380;2023-05-17T04:12:48;16.63;;;13.80;;
40849;SDS011;26571;41.610;25.380;2023-05-17T04:15:14;15.35;;;13.80;;
40849;SDS011;26571;41.610;25.380;2023-05-17T04:17:39;16.05;;;12.43;;
40849;SDS011;26571;41.610;25.380;2023-05-17T04:20:04;15.82;;;13.15;;
40849;SDS011;26571;41.610;25.380;2023-05-17T04:22:30;17.45;;;13.80;;
40849;SDS011;26571;41.610;25.380;2023-05-17T04:24:56;15.30;;;13.70;;
40849;SDS011;26571;41.610;25.380;2023-05-17T04:27:22;18.27;;;14.75;;
40849;SDS011;26571;41.610;25.380;2023-05-17T04:29:47;16.20;;;14.60;;
40849;SDS011;26571;41.610;25.380;2023-05-17T04:32:13;17.58;;;14.30;;
40849;SDS011;26571;41.610;25.380;2023-05-17T04:34:38;16.92;;;14.40;;
40849;SDS011;26571;41.610;25.380;2023-05-17T04:37:03;20.30;;;16.60;;
40849;SDS011;26571;41.610;25.380;2023-05-17T04:39:29;19.83;;;17.05;;
40849;SDS011;26571;41.610;25.380;2023-05-17T04:41:55;22.48;;;17.20;;
40849;SDS011;26571;41.610;25.380;2023-05-17T04:44:20;19.48;;;17.00;;
40849;SDS011;26571;41.610;25.380;2023-05-17T04:46:46;17.95;;;16.05;;
40849;SDS011;26571;41.610;25.380;2023-05-17T04:49:11;19.25;;;16.98;;
40849;SDS011;26571;41.610;25.380;2023-05-17T04:51:37;18.33;;;16.13;;
40849;SDS011;26571;41.610;25.380;2023-05-17T04:54:03;20.30;;;17.17;;
40849;SDS011;26571;41.610;25.380;2023-05-17T04:56:30;20.60;;;17.33;;
40849;SDS011;26571;41.610;25.380;2023-05-17T04:58:57;23.98;;;16.15;;
40849;SDS011;26571;41.610;25.380;2023-05-17T05:01:23;17.67;;;15.88;;
40849;SDS011;26571;41.610;25.380;2023-05-17T05:03:48;17.40;;;15.40;;
40849;SDS011;26571;41.610;25.380;2023-05-17T05:06:13;18.00;;;16.30;;
40849;SDS011;26571;41.610;25.380;2023-05-17T05:08:40;17.15;;;15.35;;
40849;SDS011;26571;41.610;25.380;2023-05-17T05:11:06;14.40;;;12.25;;
40849;SDS011;26571;41.610;25.380;2023-05-17T05:13:31;14.80;;;11.27;;
40849;SDS011;26571;41.610;25.380;2023-05-17T05:15:57;15.60;;;12.25;;
40849;SDS011;26571;41.610;25.380;2023-05-17T05:18:22;13.88;;;12.48;;
40849;SDS011;26571;41.610;25.380;2023-05-17T05:20:47;15.98;;;12.23;;
40849;SDS011;26571;41.610;25.380;2023-05-17T05:23:13;12.77;;;10.75;;
40849;SDS011;26571;41.610;25.380;2023-05-17T05:25:38;11.00;;;10.07;;
40849;SDS011;26571;41.610;25.380;2023-05-17T05:28:04;12.70;;;10.13;;
40849;SDS011;26571;41.610;25.380;2023-05-17T05:30:30;11.93;;;10.48;;
40849;SDS011;26571;41.610;25.380;2023-05-17T05:32:56;10.88;;;9.15;;
40849;SDS011;26571;41.610;25.380;2023-05-17T05:35:22;13.43;;;11.23;;
40849;SDS011;26571;41.610;25.380;2023-05-17T05:37:53;10.27;;;9.27;;
40849;SDS011;26571;41.610;25.380;2023-05-17T05:40:18;10.55;;;9.45;;
40849;SDS011;26571;41.610;25.380;2023-05-17T05:42:44;10.73;;;9.75;;
40849;SDS011;26571;41.610;25.380;2023-05-17T05:45:09;11.18;;;9.63;;
40849;SDS011;26571;41.610;25.380;2023-05-17T05:47:35;13.25;;;10.43;;
40849;SDS011;26571;41.610;25.380;2023-05-17T05:50:00;13.63;;;9.88;;
40849;SDS011;26571;41.610;25.380;2023-05-17T05:52:26;13.68;;;10.50;;
40849;SDS011;26571;41.610;25.380;2023-05-17T05:54:51;13.27;;;9.60;;
40849;SDS011;26571;41.610;25.380;2023-05-17T05:57:17;14.60;;;10.68;;
40849;SDS011;26571;41.610;25.380;2023-05-17T05:59:42;12.75;;;11.45;;
40849;SDS011;26571;41.610;25.380;2023-05-17T06:02:07;19.88;;;12.55;;
40849;SDS011;26571;41.610;25.380;2023-05-17T06:04:33;17.30;;;10.77;;
40849;SDS011;26571;41.610;25.380;2023-05-17T06:06:59;13.52;;;12.15;;
40849;SDS011;26571;41.610;25.380;2023-05-17T06:09:24;13.20;;;11.85;;
40849;SDS011;26571;41.610;25.380;2023-05-17T06:11:53;15.65;;;12.48;;
40849;SDS011;26571;41.610;25.380;2023-05-17T06:14:18;11.38;;;10.30;;
40849;SDS011;26571;41.610;25.380;2023-05-17T06:16:43;12.25;;;11.15;;
40849;SDS011;26571;41.610;25.380;2023-05-17T06:19:09;12.90;;;11.55;;
40849;SDS011;26571;41.610;25.380;2023-05-17T06:21:35;13.63;;;10.65;;
40849;SDS011;26571;41.610;25.380;2023-05-17T06:24:00;12.98;;;11.40;;
40849;SDS011;26571;41.610;25.380;2023-05-17T06:26:26;13.70;;;10.82;;
40849;SDS011;26571;41.610;25.380;2023-05-17T06:28:51;13.35;;;11.23;;
40849;SDS011;26571;41.610;25.380;2023-05-17T06:31:17;13.57;;;11.20;;
40849;SDS011;26571;41.610;25.380;2023-05-17T06:33:42;14.48;;;11.60;;
40849;SDS011;26571;41.610;25.380;2023-05-17T06:36:07;12.63;;;10.70;;
40849;SDS011;26571;41.610;25.380;2023-05-17T06:38:33;15.60;;;11.70;;
40849;SDS011;26571;41.610;25.380;2023-05-17T06:40:58;16.08;;;11.02;;
40849;SDS011;26571;41.610;25.380;2023-05-17T06:43:24;13.38;;;11.55;;
40849;SDS011;26571;41.610;25.380;2023-05-17T06:45:49;12.77;;;11.55;;
40849;SDS011;26571;41.610;25.380;2023-05-17T06:48:15;12.85;;;11.57;;
40849;SDS011;26571;41.610;25.380;2023-05-17T06:50:41;15.13;;;11.68;;
40849;SDS011;26571;41.610;25.380;2023-05-17T06:53:06;16.08;;;12.95;;
40849;SDS011;26571;41.610;25.380;2023-05-17T06:55:31;21.70;;;13.05;;
40849;SDS011;26571;41.610;25.380;2023-05-17T06:57:57;15.45;;;12.80;;
40849;SDS011;26571;41.610;25.380;2023-05-17T07:00:24;13.43;;;11.13;;
40849;SDS011;26571;41.610;25.380;2023-05-17T07:02:49;14.95;;;11.45;;
40849;SDS011;26571;41.610;25.380;2023-05-17T07:05:15;18.88;;;13.77;;
40849;SDS011;26571;41.610;25.380;2023-05-17T07:07:40;19.17;;;12.13;;
40849;SDS011;26571;41.610;25.380;2023-05-17T07:10:05;14.02;;;11.63;;
40849;SDS011;26571;41.610;25.380;2023-05-17T07:12:31;17.35;;;11.82;;
40849;SDS011;26571;41.610;25.380;2023-05-17T07:14:57;13.47;;;12.17;;
40849;SDS011;26571;41.610;25.380;2023-05-17T07:17:23;21.73;;;11.90;;
40849;SDS011;26571;41.610;25.380;2023-05-17T07:19:48;15.88;;;12.82;;
40849;SDS011;26571;41.610;25.380;2023-05-17T07:22:18;16.67;;;12.55;;
40849;SDS011;26571;41.610;25.380;2023-05-17T07:24:44;16.98;;;11.90;;
40849;SDS011;26571;41.610;25.380;2023-05-17T07:27:09;14.52;;;12.07;;
40849;SDS011;26571;41.610;25.380;2023-05-17T07:29:35;17.40;;;12.70;;
40849;SDS011;26571;41.610;25.380;2023-05-17T07:32:00;20.63;;;14.43;;
40849;SDS011;26571;41.610;25.380;2023-05-17T07:34:26;21.02;;;14.98;;
40849;SDS011;26571;41.610;25.380;2023-05-17T07:36:51;17.58;;;13.13;;
40849;SDS011;26571;41.610;25.380;2023-05-17T07:39:17;18.52;;;12.18;;
40849;SDS011;26571;41.610;25.380;2023-05-17T07:41:42;15.10;;;12.55;;
40849;SDS011;26571;41.610;25.380;2023-05-17T07:44:08;15.65;;;13.25;;
40849;SDS011;26571;41.610;25.380;2023-05-17T07:46:33;14.30;;;12.38;;
40849;SDS011;26571;41.610;25.380;2023-05-17T07:48:59;13.55;;;11.98;;
40849;SDS011;26571;41.610;25.380;2023-05-17T07:51:25;17.52;;;12.20;;
40849;SDS011;26571;41.610;25.380;2023-05-17T07:53:50;14.68;;;11.13;;
40849;SDS011;26571;41.610;25.380;2023-05-17T07:56:15;15.88;;;13.43;;
40849;SDS011;26571;41.610;25.380;2023-05-17T07:58:41;19.77;;;11.35;;
40849;SDS011;26571;41.610;25.380;2023-05-17T08:01:07;15.93;;;12.10;;
40849;SDS011;26571;41.610;25.380;2023-05-17T08:03:33;17.73;;;11.73;;
40849;SDS011;26571;41.610;25.380;2023-05-17T08:05:59;13.75;;;12.05;;
40849;SDS011;26571;41.610;25.380;2023-05-17T08:08:25;20.63;;;11.68;;
40849;SDS011;26571;41.610;25.380;2023-05-17T08:10:50;17.92;;;12.48;;
40849;SDS011;26571;41.610;25.380;2023-05-17T08:13:16;16.85;;;12.43;;
40849;SDS011;26571;41.610;25.380;2023-05-17T08:15:41;16.98;;;13.80;;
40849;SDS011;26571;41.610;25.380;2023-05-17T08:18:06;18.48;;;12.95;;
40849;SDS011;26571;41.610;25.380;2023-05-17T08:20:32;16.52;;;12.02;;
40849;SDS011;26571;41.610;25.380;2023-05-17T08:22:57;15.98;;;12.05;;
40849;SDS011;26571;41.610;25.380;2023-05-17T08:25:23;16.73;;;11.00;;
40849;SDS011;26571;41.610;25.380;2023-05-17T08:27:48;13.68;;;11.32;;
40849;SDS011;26571;41.610;25.380;2023-05-17T08:30:14;20.50;;;12.38;;
40849;SDS011;26571;41.610;25.380;2023-05-17T08:32:39;13.80;;;11.40;;
40849;SDS011;26571;41.610;25.380;2023-05-17T08:35:05;30.40;;;23.65;;
40849;SDS011;26571;41.610;25.380;2023-05-17T08:37:32;22.45;;;16.38;;
40849;SDS011;26571;41.610;25.380;2023-05-17T08:39:57;22.25;;;13.40;;
40849;SDS011;26571;41.610;25.380;2023-05-17T08:42:23;23.25;;;15.70;;
40849;SDS011;26571;41.610;25.380;2023-05-17T08:44:51;14.95;;;12.93;;
40849;SDS011;26571;41.610;25.380;2023-05-17T08:47:19;17.17;;;12.85;;
40849;SDS011;26571;41.610;25.380;2023-05-17T08:49:56;14.02;;;12.63;;
40849;SDS011;26571;41.610;25.380;2023-05-17T08:52:26;19.38;;;12.60;;
40849;SDS011;26571;41.610;25.380;2023-05-17T08:54:55;19.48;;;14.63;;
40849;SDS011;26571;41.610;25.380;2023-05-17T08:57:20;20.38;;;11.98;;
40849;SDS011;26571;41.610;25.380;2023-05-17T08:59:48;16.15;;;12.13;;
40849;SDS011;26571;41.610;25.380;2023-05-17T09:02:16;15.65;;;13.18;;
40849;SDS011;26571;41.610;25.380;2023-05-17T09:04:41;15.55;;;10.32;;
40849;SDS011;26571;41.610;25.380;2023-05-17T09:07:07;16.00;;;10.68;;
40849;SDS011;26571;41.610;25.380;2023-05-17T09:09:32;21.08;;;11.95;;
40849;SDS011;26571;41.610;25.380;2023-05-17T09:11:59;13.80;;;11.35;;
40849;SDS011;26571;41.610;25.380;2023-05-17T09:14:31;17.88;;;12.30;;
40849;SDS011;26571;41.610;25.380;2023-05-17T09:16:59;15.75;;;12.55;;
40849;SDS011;26571;41.610;25.380;2023-05-17T09:19:25;16.65;;;12.63;;
40849;SDS011;26571;41.610;25.380;2023-05-17T09:21:52;18.63;;;14.90;;
40849;SDS011;26571;41.610;25.380;2023-05-17T09:24:20;21.10;;;13.38;;
40849;SDS011;26571;41.610;25.380;2023-05-17T09:26:52;14.70;;;11.35;;
40849;SDS011;26571;41.610;25.380;2023-05-17T09:29:25;17.92;;;14.05;;
40849;SDS011;26571;41.610;25.380;2023-05-17T09:31:51;22.70;;;14.70;;
40849;SDS011;26571;41.610;25.380;2023-05-17T09:34:19;24.23;;;16.52;;
40849;SDS011;26571;41.610;25.380;2023-05-17T09:36:45;14.57;;;12.27;;
40849;SDS011;26571;41.610;25.380;2023-05-17T09:39:10;18.42;;;14.85;;
40849;SDS011;26571;41.610;25.380;2023-05-17T09:41:41;23.23;;;17.13;;
40849;SDS011;26571;41.610;25.380;2023-05-17T09:44:09;31.35;;;22.33;;
40849;SDS011;26571;41.610;25.380;2023-05-17T09:46:36;18.50;;;15.85;;
40849;SDS011;26571;41.610;25.380;2023-05-17T09:49:05;13.25;;;11.98;;
40849;SDS011;26571;41.610;25.380;2023-05-17T09:51:31;12.68;;;10.57;;
40849;SDS011;26571;41.610;25.380;2023-05-17T09:53:57;12.00;;;10.73;;
40849;SDS011;26571;41.610;25.380;2023-05-17T09:56:26;18.17;;;16.05;;
40849;SDS011;26571;41.610;25.380;2023-05-17T09:58:52;14.32;;;12.10;;
40849;SDS011;26571;41.610;25.380;2023-05-17T10:01:17;13.07;;;10.70;;
40849;SDS011;26571;41.610;25.380;2023-05-17T10:03:43;10.70;;;9.52;;
40849;SDS011;26571;41.610;25.380;2023-05-17T10:06:09;10.77;;;9.20;;
40849;SDS011;26571;41.610;25.380;2023-05-17T10:08:36;12.93;;;9.70;;
40849;SDS011;26571;41.610;25.380;2023-05-17T10:11:06;10.43;;;9.52;;
40849;SDS011;26571;41.610;25.380;2023-05-17T10:13:35;11.73;;;8.52;;
40849;SDS011;26571;41.610;25.380;2023-05-17T10:16:04;12.25;;;11.15;;
40849;SDS011;26571;41.610;25.380;2023-05-17T10:18:30;8.13;;;7.32;;
40849;SDS011;26571;41.610;25.380;2023-05-17T10:20:56;11.23;;;8.20;;
40849;SDS011;26571;41.610;25.380;2023-05-17T10:23:22;9.75;;;8.75;;
40849;SDS011;26571;41.610;25.380;2023-05-17T10:25:50;9.35;;;8.55;;
40849;SDS011;26571;41.610;25.380;2023-05-17T10:28:16;11.18;;;9.18;;
40849;SDS011;26571;41.610;25.380;2023-05-17T10:30:42;8.52;;;7.68;;
40849;SDS011;26571;41.610;25.380;2023-05-17T10:33:08;13.82;;;10.70;;
40849;SDS011;26571;41.610;25.380;2023-05-17T10:35:40;11.15;;;10.20;;
40849;SDS011;26571;41.610;25.380;2023-05-17T10:38:08;11.38;;;10.23;;
40849;SDS011;26571;41.610;25.380;2023-05-17T10:40:33;12.15;;;10.27;;
40849;SDS011;26571;41.610;25.380;2023-05-17T10:43:00;12.75;;;10.52;;
40849;SDS011;26571;41.610;25.380;2023-05-17T10:45:27;10.82;;;9.77;;
40849;SDS011;26571;41.610;25.380;2023-05-17T10:47:53;11.75;;;9.95;;
40849;SDS011;26571;41.610;25.380;2023-05-17T10:50:23;9.38;;;8.48;;
40849;SDS011;26571;41.610;25.380;2023-05-17T10:52:49;9.05;;;8.30;;
40849;SDS011;26571;41.610;25.380;2023-05-17T10:55:19;11.55;;;8.65;;
40849;SDS011;26571;41.610;25.380;2023-05-17T11:00:51;10.85;;;9.85;;
40849;SDS011;26571;41.610;25.380;2023-05-17T11:03:26;10.63;;;8.20;;
40849;SDS011;26571;41.610;25.380;2023-05-17T11:08:34;10.52;;;9.57;;
40849;SDS011;26571;41.610;25.380;2023-05-17T11:11:18;11.30;;;8.90;;
40849;SDS011;26571;41.610;25.380;2023-05-17T11:16:16;6.85;;;6.25;;
40849;SDS011;26571;41.610;25.380;2023-05-17T11:21:12;9.43;;;8.65;;
40849;SDS011;26571;41.610;25.380;2023-05-17T11:23:39;9.02;;;8.18;;
40849;SDS011;26571;41.610;25.380;2023-05-17T11:28:42;9.90;;;8.93;;
40849;SDS011;26571;41.610;25.380;2023-05-17T11:31:08;8.85;;;8.05;;
40849;SDS011;26571;41.610;25.380;2023-05-17T11:33:38;13.00;;;11.85;;
40849;SDS011;26571;41.610;25.380;2023-05-17T11:36:12;20.83;;;18.70;;
40849;SDS011;26571;41.610;25.380;2023-05-17T11:38:43;13.98;;;12.55;;
40849;SDS011;26571;41.610;25.380;2023-05-17T11:41:15;25.90;;;20.55;;
40849;SDS011;26571;41.610;25.380;2023-05-17T11:43:44;14.32;;;12.82;;
40849;SDS011;26571;41.610;25.380;2023-05-17T11:46:17;22.40;;;20.00;;
40849;SDS011;26571;41.610;25.380;2023-05-17T11:48:44;18.17;;;15.02;;
40849;SDS011;26571;41.610;25.380;2023-05-17T11:51:12;10.40;;;8.18;;
40849;SDS011;26571;41.610;25.380;2023-05-17T11:53:39;17.52;;;14.68;;
40849;SDS011;26571;41.610;25.380;2023-05-17T11:56:06;10.70;;;9.60;;
40849;SDS011;26571;41.610;25.380;2023-05-17T11:58:32;11.87;;;10.63;;
40849;SDS011;26571;41.610;25.380;2023-05-17T12:00:58;16.88;;;12.88;;
40849;SDS011;26571;41.610;25.380;2023-05-17T12:03:24;9.00;;;7.93;;
40849;SDS011;26571;41.610;25.380;2023-05-17T12:08:36;9.90;;;8.95;;
40849;SDS011;26571;41.610;25.380;2023-05-17T12:11:03;9.43;;;8.50;;
40849;SDS011;26571;41.610;25.380;2023-05-17T12:13:32;9.35;;;8.50;;
40849;SDS011;26571;41.610;25.380;2023-05-17T12:21:00;9.90;;;8.15;;
40849;SDS011;26571;41.610;25.380;2023-05-17T12:23:30;8.38;;;7.47;;
40849;SDS011;26571;41.610;25.380;2023-05-17T12:26:07;7.90;;;7.28;;
40849;SDS011;26571;41.610;25.380;2023-05-17T12:28:34;9.73;;;8.73;;
40849;SDS011;26571;41.610;25.380;2023-05-17T12:31:05;8.63;;;7.82;;
40849;SDS011;26571;41.610;25.380;2023-05-17T12:33:34;8.20;;;7.40;;
40849;SDS011;26571;41.610;25.380;2023-05-17T12:36:03;8.18;;;7.38;;
40849;SDS011;26571;41.610;25.380;2023-05-17T12:38:32;8.23;;;6.32;;
40849;SDS011;26571;41.610;25.380;2023-05-17T12:40:59;8.45;;;7.72;;
40849;SDS011;26571;41.610;25.380;2023-05-17T12:43:29;7.75;;;7.20;;
40849;SDS011;26571;41.610;25.380;2023-05-17T12:46:06;8.18;;;7.28;;
40849;SDS011;26571;41.610;25.380;2023-05-17T12:48:33;7.78;;;7.13;;
40849;SDS011;26571;41.610;25.380;2023-05-17T12:51:18;8.98;;;8.18;;
40849;SDS011;26571;41.610;25.380;2023-05-17T12:56:18;9.38;;;7.78;;
40849;SDS011;26571;41.610;25.380;2023-05-17T12:59:02;8.57;;;5.60;;
40849;SDS011;26571;41.610;25.380;2023-05-17T13:04:10;7.30;;;6.70;;
40849;SDS011;26571;41.610;25.380;2023-05-17T13:06:46;12.27;;;6.78;;
40849;SDS011;26571;41.610;25.380;2023-05-17T13:09:12;7.10;;;6.45;;
40849;SDS011;26571;41.610;25.380;2023-05-17T13:11:40;7.75;;;6.75;;
40849;SDS011;26571;41.610;25.380;2023-05-17T13:14:09;8.90;;;7.05;;
40849;SDS011;26571;41.610;25.380;2023-05-17T13:16:36;8.20;;;5.07;;
40849;SDS011;26571;41.610;25.380;2023-05-17T13:19:10;6.38;;;3.60;;
40849;SDS011;26571;41.610;25.380;2023-05-17T13:21:39;5.82;;;4.95;;
40849;SDS011;26571;41.610;25.380;2023-05-17T13:24:04;5.18;;;3.53;;
40849;SDS011;26571;41.610;25.380;2023-05-17T13:26:30;8.63;;;4.22;;
40849;SDS011;26571;41.610;25.380;2023-05-17T13:28:55;5.97;;;4.07;;
40849;SDS011;26571;41.610;25.380;2023-05-17T13:31:21;5.55;;;4.28;;
40849;SDS011;26571;41.610;25.380;2023-05-17T13:33:46;5.10;;;2.60;;
40849;SDS011;26571;41.610;25.380;2023-05-17T13:38:39;13.82;;;9.30;;
40849;SDS011;26571;41.610;25.380;2023-05-17T13:41:04;7.00;;;3.85;;
40849;SDS011;26571;41.610;25.380;2023-05-17T13:43:31;5.90;;;3.88;;
40849;SDS011;26571;41.610;25.380;2023-05-17T13:45:57;4.57;;;4.18;;
40849;SDS011;26571;41.610;25.380;2023-05-17T13:48:23;3.22;;;2.92;;
40849;SDS011;26571;41.610;25.380;2023-05-17T13:50:48;8.60;;;4.80;;
40849;SDS011;26571;41.610;25.380;2023-05-17T13:53:15;4.18;;;3.67;;
40849;SDS011;26571;41.610;25.380;2023-05-17T13:55:40;7.53;;;6.50;;
40849;SDS011;26571;41.610;25.380;2023-05-17T13:58:06;15.95;;;10.07;;
40849;SDS011;26571;41.610;25.380;2023-05-17T14:00:31;8.68;;;7.07;;
40849;SDS011;26571;41.610;25.380;2023-05-17T14:02:57;6.90;;;6.18;;
40849;SDS011;26571;41.610;25.380;2023-05-17T14:05:22;10.68;;;7.10;;
40849;SDS011;26571;41.610;25.380;2023-05-17T14:07:48;7.10;;;6.50;;
40849;SDS011;26571;41.610;25.380;2023-05-17T14:10:15;5.25;;;4.85;;
40849;SDS011;26571;41.610;25.380;2023-05-17T14:12:41;8.18;;;6.10;;
40849;SDS011;26571;41.610;25.380;2023-05-17T14:15:07;6.25;;;4.53;;
40849;SDS011;26571;41.610;25.380;2023-05-17T14:17:33;8.07;;;5.68;;
40849;SDS011;26571;41.610;25.380;2023-05-17T14:19:58;9.32;;;6.15;;
40849;SDS011;26571;41.610;25.380;2023-05-17T14:22:24;9.20;;;6.30;;
40849;SDS011;26571;41.610;25.380;2023-05-17T14:24:49;7.55;;;5.40;;
40849;SDS011;26571;41.610;25.380;2023-05-17T14:27:15;9.02;;;6.30;;
40849;SDS011;26571;41.610;25.380;2023-05-17T14:29:40;5.63;;;5.00;;
40849;SDS011;26571;41.610;25.380;2023-05-17T14:32:06;9.25;;;4.68;;
40849;SDS011;26571;41.610;25.380;2023-05-17T14:34:31;6.00;;;4.20;;
40849;SDS011;26571;41.610;25.380;2023-05-17T14:36:56;5.05;;;4.18;;
40849;SDS011;26571;41.610;25.380;2023-05-17T14:39:22;10.52;;;5.07;;
40849;SDS011;26571;41.610;25.380;2023-05-17T14:41:48;7.32;;;3.20;;
40849;SDS011;26571;41.610;25.380;2023-05-17T14:44:13;3.13;;;2.92;;
40849;SDS011;26571;41.610;25.380;2023-05-17T14:46:39;4.40;;;4.00;;
40849;SDS011;26571;41.610;25.380;2023-05-17T14:49:04;3.78;;;3.58;;
40849;SDS011;26571;41.610;25.380;2023-05-17T14:51:30;4.47;;;4.07;;